Flight Track Log - Related Links

Times and Time Zones

All times are in EDT time to prevent confusion due to time zone crossing. See the SBS4589 flight status page for this flight to view local times or setup timezone preferences in your user account.

Time Position Orientation Groundspeed Altitude Reporting Facility
EDT Latitude Longitude Course Direction KTS MPH feet Rate Location/Type
Mon 05:14:23 PM 18.4833 -64.5167 305° West 170 196 2,500  Level San Juan Center
Mon 05:15:23 PM 18.5167 -64.5667 305° West 200 230 4,300 1,650 Climbing San Juan Center
Mon 05:16:23 PM 18.5167 -64.6167 270° West 180 207 5,800 1,339 Climbing San Juan Center
Mon 05:17:24 PM 18.5000 -64.6667 251° West 180 207 7,000 1,091 Climbing San Juan Center
Mon 05:18:24 PM 18.5000 -64.7167 270° West 190 219 8,000 500 Climbing San Juan Center
Mon 05:19:24 PM 18.4833 -64.8000 258° West 240 276 8,000  Level San Juan Center
Mon 05:20:24 PM 18.4667 -64.8667 255° West 260 299 8,000  Level San Juan Center
Mon 05:21:25 PM 18.4667 -64.9500 270° West 260 299 8,000  Level San Juan Center
Mon 05:22:25 PM 18.4500 -65.0167 255° West 270 311 8,000  Level San Juan Center
Mon 05:23:25 PM 18.4333 -65.1000 258° West 270 311 8,000  Level San Juan Center
Mon 05:24:25 PM 18.4333 -65.1833 270° West 270 311 8,000 -496 Level San Juan Center
Mon 05:25:26 PM 18.4167 -65.2500 255° West 270 311 7,000 -992 Descending San Juan Center
Mon 05:26:26 PM 18.4000 -65.3333 258° West 270 311 6,000 -500 Descending San Juan Center
Mon 05:27:26 PM 18.4000 -65.4167 270° West 250 288 6,000  Level San Juan Center
Mon 05:28:27 PM 18.3833 -65.4833 255° West 250 288 6,000  Level San Juan Center
Mon 05:29:27 PM 18.3667 -65.5667 258° West 260 299 6,000  Level San Juan Center
Mon 05:30:28 PM 18.3667 -65.6333 270° West 260 299 6,000  Level San Juan Center
Mon 05:31:28 PM 18.3833 -65.7000 285° West 260 299 6,000 -300 Level San Juan Center
Mon 05:32:28 PM 18.3833 -65.7833 270° West 260 299 5,400 -744 Descending San Juan Center
Mon 05:33:29 PM 18.3833 -65.8500 270° West 220 253 4,500 -992 Descending San Juan Center
Mon 05:34:29 PM 18.3833 -65.9167 270° West 180 207 3,400 -1,250 Descending San Juan Center
Mon 05:35:29 PM 18.3833 -65.9667 270° West 180 207 2,000 -893 Descending San Juan Center
Mon 05:36:30 PM 18.3833 -66.0000 270° West 150 173 1,600 -446 Descending San Juan Center
Mon 05:37:30 PM 18.4000 -66.0333 298° West 130 150 1,100 -600 Descending San Juan Center
Mon 05:38:30 PM 18.4167 -66.0167 43° Northeast 110 127 400 -700 Descending San Juan Center

Login

Don't have an account? Register now (free) for customized features, flight alerts, and more!